Terminal Aerodrome Forecast
Issued by NWS Mt. Holly, NJ

Home | Current Version | Previous Version | Text Only | Print | Product List | Glossary On
Versions: 1 2 3 4 5 6 7 8 9 10 11 12 13 14
000
FTUS41 KPHI 011100
TAFACY
TAF
KACY 011137Z 0112/0212 17006KT P6SM FEW050 BKN150
      TEMPO 0118/0122 P6SM -SHRA BKN040
     FM020000 15005KT P6SM OVC050
     FM020300 09004KT 5SM -RA BR OVC020=

USA.gov is the U.S. government's official web portal to all federal, state and local government web resources and services.